createdAt,value
2019-01-22T00:00:21.756Z,1011.06
2019-01-22T00:01:21.755Z,1011.01
2019-01-22T00:02:21.732Z,1011.06
2019-01-22T00:03:21.742Z,1011.05
2019-01-22T00:04:21.717Z,1011.00
2019-01-22T00:05:21.727Z,1011.04
2019-01-22T00:06:21.692Z,1010.95
2019-01-22T00:07:21.695Z,1010.93
2019-01-22T00:08:21.674Z,1010.95
2019-01-22T00:09:21.685Z,1010.94
2019-01-22T00:10:21.648Z,1010.88
2019-01-22T00:11:21.658Z,1010.90
2019-01-22T00:12:21.655Z,1010.87
2019-01-22T00:13:21.627Z,1010.85
2019-01-22T00:14:21.613Z,1010.84
2019-01-22T00:15:21.617Z,1010.82
2019-01-22T00:16:21.588Z,1010.85
2019-01-22T00:17:21.599Z,1010.81
2019-01-22T00:18:21.568Z,1010.78
2019-01-22T00:19:21.543Z,1010.77
2019-01-22T00:20:21.548Z,1010.81
2019-01-22T00:21:21.527Z,1010.75
2019-01-22T00:22:21.565Z,1010.72
2019-01-22T00:23:21.530Z,1010.72
2019-01-22T00:24:21.506Z,1010.73
2019-01-22T00:25:21.484Z,1010.68
2019-01-22T00:26:21.489Z,1010.77
2019-01-22T00:27:21.494Z,1010.75
2019-01-22T00:28:21.504Z,1010.72
2019-01-22T00:29:21.465Z,1010.75
2019-01-22T00:30:21.440Z,1010.71
2019-01-22T00:31:21.418Z,1010.69
2019-01-22T00:32:21.415Z,1010.73
2019-01-22T00:33:21.404Z,1010.71
2019-01-22T00:34:21.454Z,1010.71
2019-01-22T00:35:21.382Z,1010.68
2019-01-22T00:36:21.381Z,1010.68
2019-01-22T00:37:21.370Z,1010.72
2019-01-22T00:38:21.369Z,1010.69
2019-01-22T00:39:21.363Z,1010.66
2019-01-22T00:40:21.362Z,1010.61
2019-01-22T00:41:21.323Z,1010.64
2019-01-22T00:42:21.301Z,1010.65
2019-01-22T00:43:21.304Z,1010.71
2019-01-22T00:44:21.304Z,1010.64
2019-01-22T00:45:21.297Z,1010.63
2019-01-22T00:46:21.281Z,1010.65
2019-01-22T00:47:21.257Z,1010.67
2019-01-22T00:48:21.253Z,1010.62
2019-01-22T00:49:21.250Z,1010.66
2019-01-22T00:50:21.251Z,1010.58
2019-01-22T00:51:21.284Z,1010.60
2019-01-22T00:52:21.205Z,1010.57
2019-01-22T00:53:21.191Z,1010.58
2019-01-22T00:54:21.184Z,1010.56
2019-01-22T00:55:21.211Z,1010.57
2019-01-22T00:56:21.172Z,1010.56
2019-01-22T00:57:21.149Z,1010.56
2019-01-22T00:58:21.156Z,1010.54
2019-01-22T00:59:21.189Z,1010.53
2019-01-22T01:00:21.123Z,1010.49
2019-01-22T01:01:21.145Z,1010.48
2019-01-22T01:02:21.101Z,1010.48
2019-01-22T01:03:21.124Z,1010.47
2019-01-22T01:04:21.080Z,1010.52
2019-01-22T01:05:21.064Z,1010.47
2019-01-22T01:06:21.074Z,1010.51
2019-01-22T01:07:21.137Z,1010.49
2019-01-22T01:08:21.053Z,1010.45
2019-01-22T01:09:21.037Z,1010.42
2019-01-22T01:10:21.030Z,1010.49
2019-01-22T01:11:21.000Z,1010.53
2019-01-22T01:12:20.997Z,1010.41
2019-01-22T01:13:21.026Z,1010.46
2019-01-22T01:14:20.988Z,1010.48
2019-01-22T01:15:20.960Z,1010.39
2019-01-22T01:16:20.960Z,1010.38
2019-01-22T01:17:20.951Z,1010.42
2019-01-22T01:18:20.937Z,1010.38
2019-01-22T01:19:20.956Z,1010.42
2019-01-22T01:20:20.929Z,1010.38
2019-01-22T01:21:20.906Z,1010.42
2019-01-22T01:22:20.901Z,1010.46
2019-01-22T01:23:20.881Z,1010.43
2019-01-22T01:24:20.893Z,1010.37
2019-01-22T01:25:20.849Z,1010.37
2019-01-22T01:26:20.857Z,1010.38
2019-01-22T01:27:20.842Z,1010.39
2019-01-22T01:28:20.835Z,1010.35
2019-01-22T01:29:20.813Z,1010.30
2019-01-22T01:30:20.829Z,1010.30
2019-01-22T01:31:20.805Z,1010.32
2019-01-22T01:32:20.808Z,1010.26
2019-01-22T01:33:20.781Z,1010.26
2019-01-22T01:34:20.751Z,1010.26
2019-01-22T01:35:20.784Z,1010.21
2019-01-22T01:36:20.754Z,1010.20
2019-01-22T01:37:20.734Z,1010.23
2019-01-22T01:38:20.707Z,1010.20
2019-01-22T01:39:20.705Z,1010.17
2019-01-22T01:40:20.687Z,1010.19
2019-01-22T01:41:20.726Z,1010.19
2019-01-22T01:42:20.680Z,1010.16
2019-01-22T01:43:20.676Z,1010.21
2019-01-22T01:44:20.650Z,1010.11
2019-01-22T01:45:20.648Z,1010.13
2019-01-22T01:46:20.655Z,1010.16
2019-01-22T01:47:20.775Z,1010.13
2019-01-22T01:48:20.640Z,1010.12
2019-01-22T01:49:20.618Z,1010.10
2019-01-22T01:50:20.606Z,1010.10
2019-01-22T01:51:20.584Z,1010.08
2019-01-22T01:52:20.579Z,1010.08
2019-01-22T01:53:24.012Z,1010.03
2019-01-22T01:54:20.573Z,1010.01
2019-01-22T01:55:20.541Z,1010.00
2019-01-22T01:56:20.549Z,1010.06
2019-01-22T01:57:20.523Z,1010.02
2019-01-22T01:58:20.529Z,1009.99
2019-01-22T01:59:20.503Z,1010.04
2019-01-22T02:00:20.505Z,1010.00
2019-01-22T02:01:20.486Z,1009.97
2019-01-22T02:02:20.469Z,1009.92
2019-01-22T02:03:20.453Z,1009.96
2019-01-22T02:04:20.466Z,1009.95
2019-01-22T02:05:20.470Z,1009.98
2019-01-22T02:06:20.428Z,1009.96
2019-01-22T02:07:20.423Z,1009.92
2019-01-22T02:08:20.405Z,1009.93
2019-01-22T02:09:20.400Z,1009.94
2019-01-22T02:10:20.378Z,1009.90
2019-01-22T02:11:20.404Z,1009.90
2019-01-22T02:12:20.359Z,1009.89
2019-01-22T02:13:20.354Z,1009.85
2019-01-22T02:14:20.362Z,1009.84
2019-01-22T02:15:20.374Z,1009.78
2019-01-22T02:16:20.343Z,1009.74
2019-01-22T02:17:20.312Z,1009.81
2019-01-22T02:18:20.301Z,1009.80
2019-01-22T02:19:20.298Z,1009.72
2019-01-22T02:20:20.277Z,1009.74
2019-01-22T02:21:20.297Z,1009.71
2019-01-22T02:22:20.254Z,1009.70
2019-01-22T02:23:20.239Z,1009.66
2019-01-22T02:24:20.228Z,1009.58
2019-01-22T02:25:20.227Z,1009.60
2019-01-22T02:26:20.242Z,1009.53
2019-01-22T02:27:20.214Z,1009.54
2019-01-22T02:28:20.198Z,1009.56
2019-01-22T02:29:20.188Z,1009.54
2019-01-22T02:30:20.174Z,1009.51
2019-01-22T02:31:20.169Z,1009.54
2019-01-22T02:32:20.177Z,1009.47
2019-01-22T02:33:20.167Z,1009.48
2019-01-22T02:34:20.130Z,1009.42
2019-01-22T02:35:20.118Z,1009.39
2019-01-22T02:36:20.109Z,1009.44
2019-01-22T02:37:20.112Z,1009.37
2019-01-22T02:38:20.094Z,1009.36
2019-01-22T02:39:20.099Z,1009.33
2019-01-22T02:40:20.072Z,1009.34
2019-01-22T02:41:20.063Z,1009.36
2019-01-22T02:42:20.068Z,1009.32
2019-01-22T02:43:20.050Z,1009.35
2019-01-22T02:44:20.020Z,1009.29
2019-01-22T02:45:20.026Z,1009.27
2019-01-22T02:46:20.025Z,1009.27
2019-01-22T02:47:19.999Z,1009.30
2019-01-22T02:48:20.012Z,1009.24
2019-01-22T02:49:19.975Z,1009.29
2019-01-22T02:50:19.989Z,1009.21
2019-01-22T02:51:19.980Z,1009.27
2019-01-22T02:52:19.942Z,1009.28
2019-01-22T02:53:19.938Z,1009.25
2019-01-22T02:54:19.949Z,1009.22
2019-01-22T02:55:19.915Z,1009.23
2019-01-22T02:56:19.896Z,1009.20
2019-01-22T02:57:19.893Z,1009.17
2019-01-22T02:58:19.891Z,1009.18
2019-01-22T02:59:19.908Z,1009.16
2019-01-22T03:00:19.861Z,1009.17
2019-01-22T03:01:19.860Z,1009.17
2019-01-22T03:02:19.837Z,1009.11
2019-01-22T03:03:19.817Z,1009.01
2019-01-22T03:04:19.819Z,1009.08
2019-01-22T03:05:19.825Z,1009.02
2019-01-22T03:06:19.783Z,1009.05
2019-01-22T03:07:19.777Z,1009.02
2019-01-22T03:08:19.770Z,1009.03
2019-01-22T03:09:19.760Z,1008.99
2019-01-22T03:10:19.779Z,1008.96
2019-01-22T03:11:19.753Z,1008.95
2019-01-22T03:12:19.727Z,1008.95
2019-01-22T03:13:19.716Z,1008.96
2019-01-22T03:14:19.713Z,1008.95
2019-01-22T03:15:19.721Z,1008.95
2019-01-22T03:16:19.734Z,1008.91
2019-01-22T03:17:19.674Z,1008.89
2019-01-22T03:18:19.688Z,1008.90
2019-01-22T03:19:19.665Z,1008.90
2019-01-22T03:20:19.654Z,1008.82
2019-01-22T03:21:19.635Z,1008.85
2019-01-22T03:22:19.662Z,1008.85
2019-01-22T03:23:19.624Z,1008.87
2019-01-22T03:24:19.620Z,1008.83
2019-01-22T03:25:19.608Z,1008.92
2019-01-22T03:26:19.583Z,1008.86
2019-01-22T03:27:19.589Z,1008.86
2019-01-22T03:28:19.564Z,1008.88
2019-01-22T03:29:19.550Z,1008.80
2019-01-22T03:30:19.544Z,1008.84
2019-01-22T03:31:19.542Z,1008.81
2019-01-22T03:32:19.593Z,1008.82
2019-01-22T03:33:19.861Z,1008.79
2019-01-22T03:34:19.494Z,1008.80
2019-01-22T03:35:19.483Z,1008.78
2019-01-22T03:36:19.480Z,1008.78
2019-01-22T03:37:19.468Z,1008.78
2019-01-22T03:38:19.469Z,1008.79
2019-01-22T03:39:19.440Z,1008.79
2019-01-22T03:40:19.438Z,1008.78
2019-01-22T03:41:19.417Z,1008.79
2019-01-22T03:42:19.418Z,1008.74
2019-01-22T03:43:19.422Z,1008.77
2019-01-22T03:44:19.398Z,1008.84
2019-01-22T03:45:19.398Z,1008.80
2019-01-22T03:46:19.361Z,1008.78
2019-01-22T03:47:19.374Z,1008.74
2019-01-22T03:48:19.351Z,1008.77
2019-01-22T03:49:19.355Z,1008.71
2019-01-22T03:50:19.340Z,1008.79
2019-01-22T03:51:19.332Z,1008.73
2019-01-22T03:52:19.298Z,1008.73
2019-01-22T03:53:19.293Z,1008.77
2019-01-22T03:54:19.324Z,1008.76
2019-01-22T03:55:19.285Z,1008.70
2019-01-22T03:56:19.265Z,1008.78
2019-01-22T03:57:19.255Z,1008.77
2019-01-22T03:58:19.274Z,1008.73
2019-01-22T03:59:19.225Z,1008.72
2019-01-22T04:00:19.236Z,1008.72
2019-01-22T04:01:19.202Z,1008.73
2019-01-22T04:02:19.212Z,1008.69
2019-01-22T04:03:19.207Z,1008.71
2019-01-22T04:04:19.183Z,1008.70
2019-01-22T04:05:19.241Z,1008.69
2019-01-22T04:06:19.166Z,1008.68
2019-01-22T04:07:19.141Z,1008.69
2019-01-22T04:08:19.177Z,1008.68
2019-01-22T04:09:19.184Z,1008.57
2019-01-22T04:10:19.114Z,1008.62
2019-01-22T04:11:19.117Z,1008.64
2019-01-22T04:12:19.097Z,1008.62
2019-01-22T04:13:19.092Z,1008.64
2019-01-22T04:14:19.112Z,1008.62
2019-01-22T04:15:19.086Z,1008.56
2019-01-22T04:16:19.076Z,1008.58
2019-01-22T04:17:19.053Z,1008.54
2019-01-22T04:18:19.033Z,1008.54
2019-01-22T04:19:19.063Z,1008.56
2019-01-22T04:20:19.049Z,1008.60
2019-01-22T04:21:18.990Z,1008.56
2019-01-22T04:22:18.992Z,1008.57
2019-01-22T04:23:18.994Z,1008.53
2019-01-22T04:24:18.982Z,1008.53
2019-01-22T04:25:18.981Z,1008.49
2019-01-22T04:26:18.954Z,1008.48
2019-01-22T04:27:18.943Z,1008.47
2019-01-22T04:28:18.948Z,1008.52
2019-01-22T04:29:18.921Z,1008.42
2019-01-22T04:30:18.920Z,1008.40
2019-01-22T04:31:18.897Z,1008.36
2019-01-22T04:32:18.886Z,1008.38
2019-01-22T04:33:18.866Z,1008.31
2019-01-22T04:34:18.874Z,1008.32
2019-01-22T04:35:18.893Z,1008.33
2019-01-22T04:36:18.854Z,1008.33
2019-01-22T04:37:18.833Z,1008.29
2019-01-22T04:38:18.827Z,1008.32
2019-01-22T04:39:18.803Z,1008.38
2019-01-22T04:40:18.819Z,1008.34
2019-01-22T04:41:18.819Z,1008.35
2019-01-22T04:42:18.778Z,1008.39
2019-01-22T04:43:18.764Z,1008.35
2019-01-22T04:44:18.749Z,1008.33
2019-01-22T04:45:18.738Z,1008.33
2019-01-22T04:46:18.766Z,1008.29
2019-01-22T04:47:18.810Z,1008.33
2019-01-22T04:48:18.733Z,1008.38
2019-01-22T04:49:18.714Z,1008.33
2019-01-22T04:50:18.686Z,1008.33
2019-01-22T04:51:18.721Z,1008.32
2019-01-22T04:52:18.675Z,1008.30
2019-01-22T04:53:18.671Z,1008.22
2019-01-22T04:54:18.657Z,1008.28
2019-01-22T04:55:18.677Z,1008.26
2019-01-22T04:56:18.625Z,1008.22
2019-01-22T04:57:18.612Z,1008.24
2019-01-22T04:58:18.618Z,1008.19
2019-01-22T04:59:18.627Z,1008.20
2019-01-22T05:00:18.613Z,1008.19
2019-01-22T05:01:18.585Z,1008.19
2019-01-22T05:02:18.591Z,1008.20
2019-01-22T05:03:18.556Z,1008.17
2019-01-22T05:04:18.545Z,1008.17
2019-01-22T05:05:18.536Z,1008.15
2019-01-22T05:06:18.525Z,1008.16
2019-01-22T05:07:18.526Z,1008.20
2019-01-22T05:08:18.536Z,1008.17
2019-01-22T05:09:18.515Z,1008.15
2019-01-22T05:10:18.510Z,1008.15
2019-01-22T05:11:18.473Z,1008.17
2019-01-22T05:12:18.529Z,1008.15
2019-01-22T05:13:18.470Z,1008.13
2019-01-22T05:14:18.468Z,1008.16
2019-01-22T05:15:18.423Z,1008.14
2019-01-22T05:16:18.412Z,1008.15
2019-01-22T05:17:18.404Z,1008.15
2019-01-22T05:18:18.399Z,1008.13
2019-01-22T05:19:18.410Z,1008.12
2019-01-22T05:20:18.373Z,1008.14
2019-01-22T05:21:18.371Z,1008.10
2019-01-22T05:22:18.346Z,1008.10
2019-01-22T05:23:18.350Z,1008.13
2019-01-22T05:24:18.407Z,1008.10
2019-01-22T05:25:18.328Z,1008.14
2019-01-22T05:26:18.316Z,1008.07
2019-01-22T05:27:18.321Z,1008.07
2019-01-22T05:28:18.288Z,1008.04
2019-01-22T05:29:18.288Z,1008.00
2019-01-22T05:30:18.304Z,1008.02
2019-01-22T05:31:18.271Z,1007.98
2019-01-22T05:32:18.254Z,1008.06
2019-01-22T05:33:18.245Z,1008.02
2019-01-22T05:34:18.225Z,1008.00
2019-01-22T05:35:18.198Z,1008.02
2019-01-22T05:36:18.233Z,1008.00
2019-01-22T05:37:18.180Z,1007.96
2019-01-22T05:38:18.195Z,1008.00
2019-01-22T05:39:18.178Z,1007.96
2019-01-22T05:40:18.181Z,1007.98
2019-01-22T05:41:18.162Z,1007.99
2019-01-22T05:42:18.174Z,1007.99
2019-01-22T05:43:18.147Z,1007.97
2019-01-22T05:44:18.126Z,1007.97
2019-01-22T05:45:18.136Z,1007.96
2019-01-22T05:46:18.111Z,1007.90
2019-01-22T05:47:18.076Z,1007.98
2019-01-22T05:48:18.082Z,1008.01
2019-01-22T05:49:18.059Z,1007.94
2019-01-22T05:50:18.056Z,1007.99
2019-01-22T05:51:18.052Z,1007.98
2019-01-22T05:52:18.047Z,1007.95
2019-01-22T05:53:18.055Z,1007.98
2019-01-22T05:54:25.008Z,1007.96
2019-01-22T05:55:18.993Z,1008.01
2019-01-22T05:56:18.026Z,1008.03
2019-01-22T05:57:17.973Z,1007.99
2019-01-22T05:58:17.986Z,1007.97
2019-01-22T05:59:17.969Z,1008.03
2019-01-22T06:00:17.956Z,1007.98
2019-01-22T06:01:17.930Z,1008.00
2019-01-22T06:02:17.931Z,1007.96
2019-01-22T06:03:17.978Z,1007.97
2019-01-22T06:04:17.915Z,1008.01
2019-01-22T06:05:17.929Z,1008.04
2019-01-22T06:06:17.880Z,1007.98
2019-01-22T06:07:17.869Z,1007.93
2019-01-22T06:08:17.873Z,1007.88
2019-01-22T06:09:17.848Z,1007.87
2019-01-22T06:10:17.872Z,1007.84
2019-01-22T06:11:17.854Z,1007.92
2019-01-22T06:12:17.827Z,1007.89
2019-01-22T06:13:17.873Z,1007.90
2019-01-22T06:14:17.794Z,1007.90
2019-01-22T06:15:17.787Z,1007.86
2019-01-22T06:16:17.787Z,1007.88
2019-01-22T06:17:17.772Z,1007.80
2019-01-22T06:18:17.757Z,1007.77
2019-01-22T06:19:17.768Z,1007.79
2019-01-22T06:20:17.733Z,1007.83
2019-01-22T06:21:17.730Z,1007.76
2019-01-22T06:22:17.717Z,1007.84
2019-01-22T06:23:17.724Z,1007.83
2019-01-22T06:24:17.717Z,1007.84
2019-01-22T06:25:17.736Z,1007.78
2019-01-22T06:26:17.671Z,1007.79
2019-01-22T06:27:17.665Z,1007.81
2019-01-22T06:28:17.650Z,1007.79
2019-01-22T06:29:17.636Z,1007.81
2019-01-22T06:30:17.635Z,1007.77
2019-01-22T06:31:17.655Z,1007.80
2019-01-22T06:32:17.604Z,1007.74
2019-01-22T06:33:17.595Z,1007.75
2019-01-22T06:34:17.605Z,1007.74
2019-01-22T06:35:17.613Z,1007.74
2019-01-22T06:36:17.573Z,1007.78
2019-01-22T06:37:17.555Z,1007.79
2019-01-22T06:38:17.551Z,1007.78
2019-01-22T06:39:17.552Z,1007.81
2019-01-22T06:40:17.514Z,1007.78
2019-01-22T06:41:17.537Z,1007.80
2019-01-22T06:42:17.549Z,1007.82
2019-01-22T06:43:17.497Z,1007.79
2019-01-22T06:44:17.530Z,1007.81
2019-01-22T06:45:17.864Z,1007.80
2019-01-22T06:46:17.458Z,1007.81
2019-01-22T06:47:17.472Z,1007.82
2019-01-22T06:48:17.460Z,1007.81
2019-01-22T06:49:17.430Z,1007.75
2019-01-22T06:50:17.435Z,1007.78
2019-01-22T06:51:17.418Z,1007.80
2019-01-22T06:52:17.424Z,1007.78
2019-01-22T06:53:17.389Z,1007.76
2019-01-22T06:54:17.389Z,1007.76
2019-01-22T06:55:17.369Z,1007.72
2019-01-22T06:56:17.360Z,1007.77
2019-01-22T06:57:17.686Z,1007.76
2019-01-22T06:58:17.325Z,1007.74
2019-01-22T06:59:17.322Z,1007.76
2019-01-22T07:00:17.307Z,1007.77
2019-01-22T07:01:17.295Z,1007.77
2019-01-22T07:02:17.298Z,1007.80
2019-01-22T07:03:17.319Z,1007.80
2019-01-22T07:04:17.262Z,1007.81
2019-01-22T07:05:17.263Z,1007.76
2019-01-22T07:06:17.270Z,1007.82
2019-01-22T07:07:17.274Z,1007.81
2019-01-22T07:08:17.268Z,1007.83
2019-01-22T07:09:17.242Z,1007.83
2019-01-22T07:10:17.191Z,1007.75
2019-01-22T07:11:17.190Z,1007.84
2019-01-22T07:12:17.177Z,1007.78
2019-01-22T07:13:17.175Z,1007.81
2019-01-22T07:14:17.190Z,1007.81
2019-01-22T07:15:17.158Z,1007.84
2019-01-22T07:16:17.142Z,1007.83
2019-01-22T07:17:17.141Z,1007.80
2019-01-22T07:18:17.111Z,1007.72
2019-01-22T07:19:17.152Z,1007.72
2019-01-22T07:20:17.109Z,1007.75
2019-01-22T07:21:17.102Z,1007.74
2019-01-22T07:22:17.100Z,1007.74
2019-01-22T07:23:17.077Z,1007.74
2019-01-22T07:24:17.049Z,1007.78
2019-01-22T07:25:17.078Z,1007.75
2019-01-22T07:26:17.044Z,1007.75
2019-01-22T07:27:17.048Z,1007.74
2019-01-22T07:28:17.019Z,1007.77
2019-01-22T07:29:17.015Z,1007.75
2019-01-22T07:30:17.021Z,1007.70
2019-01-22T07:31:16.979Z,1007.69
2019-01-22T07:32:16.971Z,1007.70
2019-01-22T07:33:16.966Z,1007.68
2019-01-22T07:34:16.978Z,1007.68
2019-01-22T07:35:16.968Z,1007.74
2019-01-22T07:36:16.947Z,1007.72
2019-01-22T07:37:16.919Z,1007.70
2019-01-22T07:38:16.910Z,1007.75
2019-01-22T07:39:16.912Z,1007.71
2019-01-22T07:40:16.890Z,1007.75
2019-01-22T07:41:17.806Z,1007.72
2019-01-22T07:42:16.869Z,1007.77
2019-01-22T07:43:16.855Z,1007.80
2019-01-22T07:44:16.839Z,1007.73
2019-01-22T07:45:16.830Z,1007.74
2019-01-22T07:46:16.849Z,1007.72
2019-01-22T07:47:16.855Z,1007.69
2019-01-22T07:48:16.805Z,1007.70
2019-01-22T07:49:16.814Z,1007.68
2019-01-22T07:50:16.777Z,1007.70
2019-01-22T07:51:16.767Z,1007.63
2019-01-22T07:52:16.809Z,1007.69
2019-01-22T07:53:16.761Z,1007.63
2019-01-22T07:54:16.740Z,1007.66
2019-01-22T07:55:16.730Z,1007.68
2019-01-22T07:56:16.820Z,1007.72
2019-01-22T07:57:16.721Z,1007.66
2019-01-22T07:58:16.912Z,1007.70
2019-01-22T07:59:16.759Z,1007.64
2019-01-22T08:00:16.675Z,1007.62
2019-01-22T08:01:16.672Z,1007.60
2019-01-22T08:02:16.652Z,1007.61
2019-01-22T08:03:16.667Z,1007.57
2019-01-22T08:04:16.633Z,1007.54
2019-01-22T08:05:16.619Z,1007.60
2019-01-22T08:06:16.613Z,1007.57
2019-01-22T08:07:16.605Z,1007.58
2019-01-22T08:08:16.607Z,1007.61
2019-01-22T08:09:16.573Z,1007.48
2019-01-22T08:10:16.575Z,1007.56
2019-01-22T08:11:16.556Z,1007.54
2019-01-22T08:12:16.556Z,1007.53
2019-01-22T08:13:16.534Z,1007.54
2019-01-22T08:14:16.544Z,1007.55
2019-01-22T08:15:16.507Z,1007.56
2019-01-22T08:16:16.512Z,1007.59
2019-01-22T08:17:16.495Z,1007.55
2019-01-22T08:18:16.483Z,1007.56
2019-01-22T08:19:16.521Z,1007.58
2019-01-22T08:20:16.477Z,1007.59
2019-01-22T08:21:16.463Z,1007.55
2019-01-22T08:22:16.437Z,1007.61
2019-01-22T08:23:16.423Z,1007.52
2019-01-22T08:24:16.435Z,1007.57
2019-01-22T08:25:16.446Z,1007.54
2019-01-22T08:26:16.406Z,1007.56
2019-01-22T08:27:16.381Z,1007.53
2019-01-22T08:28:16.376Z,1007.47
2019-01-22T08:29:16.392Z,1007.51
2019-01-22T08:30:16.370Z,1007.55
2019-01-22T08:31:16.354Z,1007.49
2019-01-22T08:32:16.362Z,1007.51
2019-01-22T08:33:16.325Z,1007.50
2019-01-22T08:34:16.306Z,1007.48
2019-01-22T08:35:16.332Z,1007.49
2019-01-22T08:36:16.297Z,1007.46
2019-01-22T08:37:16.267Z,1007.46
2019-01-22T08:38:16.285Z,1007.48
2019-01-22T08:39:16.293Z,1007.46
2019-01-22T08:40:16.233Z,1007.51
2019-01-22T08:41:16.262Z,1007.50
2019-01-22T08:42:16.222Z,1007.46
2019-01-22T08:43:16.218Z,1007.54
2019-01-22T08:44:16.212Z,1007.46
2019-01-22T08:45:16.259Z,1007.47
2019-01-22T08:46:16.206Z,1007.48
2019-01-22T08:47:16.227Z,1007.51
2019-01-22T08:48:16.202Z,1007.48
2019-01-22T08:49:16.152Z,1007.45
2019-01-22T08:50:16.167Z,1007.45
2019-01-22T08:51:16.201Z,1007.34
2019-01-22T08:52:16.122Z,1007.39
2019-01-22T08:53:16.110Z,1007.31
2019-01-22T08:54:16.111Z,1007.33
2019-01-22T08:55:16.082Z,1007.35
2019-01-22T08:56:16.081Z,1007.33
2019-01-22T08:57:16.089Z,1007.29
2019-01-22T08:58:16.047Z,1007.31
2019-01-22T08:59:16.038Z,1007.31
2019-01-22T09:00:17.097Z,1007.33
2019-01-22T09:01:16.026Z,1007.31
2019-01-22T09:02:16.047Z,1007.36
2019-01-22T09:03:16.048Z,1007.35
2019-01-22T09:04:15.992Z,1007.34
2019-01-22T09:05:15.990Z,1007.31
2019-01-22T09:06:15.966Z,1007.30
2019-01-22T09:07:15.968Z,1007.32
2019-01-22T09:08:15.970Z,1007.33
2019-01-22T09:09:15.947Z,1007.27
2019-01-22T09:10:15.928Z,1007.27
2019-01-22T09:11:15.920Z,1007.29
2019-01-22T09:12:15.900Z,1007.27
2019-01-22T09:13:15.924Z,1007.27
2019-01-22T09:14:15.885Z,1007.32
2019-01-22T09:15:15.876Z,1007.33
2019-01-22T09:16:15.866Z,1007.25
2019-01-22T09:17:16.744Z,1007.28
2019-01-22T09:18:15.837Z,1007.23
2019-01-22T09:19:15.845Z,1007.18
2019-01-22T09:20:15.817Z,1007.16
2019-01-22T09:21:15.799Z,1007.15
2019-01-22T09:22:15.805Z,1007.16
2019-01-22T09:23:15.796Z,1007.15
2019-01-22T09:24:15.939Z,1007.15
2019-01-22T09:25:15.785Z,1007.15
2019-01-22T09:26:15.757Z,1007.16
2019-01-22T09:27:15.758Z,1007.17
2019-01-22T09:28:15.745Z,1007.19
2019-01-22T09:29:15.734Z,1007.20
2019-01-22T09:30:15.757Z,1007.17
2019-01-22T09:31:15.707Z,1007.14
2019-01-22T09:32:15.700Z,1007.11
2019-01-22T09:33:15.674Z,1007.07
2019-01-22T09:34:15.671Z,1007.11
2019-01-22T09:35:15.678Z,1007.09
2019-01-22T09:36:15.647Z,1007.10
2019-01-22T09:37:15.656Z,1007.01
2019-01-22T09:38:15.621Z,1007.11
2019-01-22T09:39:15.994Z,1007.10
2019-01-22T09:40:15.639Z,1007.05
2019-01-22T09:41:15.587Z,1007.06
2019-01-22T09:42:15.583Z,1007.07
2019-01-22T09:43:15.573Z,1007.06
2019-01-22T09:44:15.567Z,1007.05
2019-01-22T09:45:15.548Z,1007.05
2019-01-22T09:46:15.918Z,1007.03
2019-01-22T09:47:15.535Z,1006.99
2019-01-22T09:48:15.526Z,1006.95
2019-01-22T09:49:15.509Z,1007.02
2019-01-22T09:50:15.505Z,1007.02
2019-01-22T09:51:15.503Z,1007.02
2019-01-22T09:52:15.467Z,1006.98
2019-01-22T09:53:15.461Z,1007.01
2019-01-22T09:54:15.464Z,1006.99
2019-01-22T09:55:22.173Z,1007.00
2019-01-22T09:56:16.474Z,1006.98
2019-01-22T09:57:15.429Z,1006.97
2019-01-22T09:58:15.416Z,1006.96
2019-01-22T09:59:15.391Z,1006.93
2019-01-22T10:00:15.403Z,1006.94
2019-01-22T10:01:15.378Z,1006.98
2019-01-22T10:02:15.370Z,1006.91
2019-01-22T10:03:16.572Z,1006.95
2019-01-22T10:04:15.342Z,1006.96
2019-01-22T10:05:15.326Z,1006.94
2019-01-22T10:06:15.335Z,1006.92
2019-01-22T10:07:15.343Z,1006.94
2019-01-22T10:08:15.317Z,1006.91
2019-01-22T10:09:15.315Z,1006.90
2019-01-22T10:10:15.276Z,1006.90
2019-01-22T10:11:15.269Z,1006.93
2019-01-22T10:12:15.249Z,1006.88
2019-01-22T10:13:15.282Z,1006.90
2019-01-22T10:14:15.247Z,1006.90
2019-01-22T10:15:15.215Z,1006.85
2019-01-22T10:16:15.220Z,1006.84
2019-01-22T10:17:15.207Z,1006.88
2019-01-22T10:18:15.179Z,1006.86
2019-01-22T10:19:15.194Z,1006.80
2019-01-22T10:20:15.179Z,1006.88
2019-01-22T10:21:15.152Z,1006.85
2019-01-22T10:22:15.140Z,1006.79
2019-01-22T10:23:15.148Z,1006.79
2019-01-22T10:24:15.125Z,1006.75
2019-01-22T10:25:15.127Z,1006.75
2019-01-22T10:26:15.088Z,1006.76
2019-01-22T10:27:15.093Z,1006.72
2019-01-22T10:28:15.091Z,1006.71
2019-01-22T10:29:15.075Z,1006.70
2019-01-22T10:30:15.061Z,1006.72
2019-01-22T10:31:15.042Z,1006.68
2019-01-22T10:32:15.028Z,1006.63
2019-01-22T10:33:15.036Z,1006.65
2019-01-22T10:34:15.017Z,1006.64
2019-01-22T10:35:15.023Z,1006.61
2019-01-22T10:36:14.991Z,1006.59
2019-01-22T10:37:14.990Z,1006.59
2019-01-22T10:38:14.962Z,1006.58
2019-01-22T10:39:17.748Z,1006.57
2019-01-22T10:40:14.973Z,1006.60
2019-01-22T10:41:14.930Z,1006.51
2019-01-22T10:42:14.932Z,1006.59
2019-01-22T10:43:14.918Z,1006.53
2019-01-22T10:44:14.907Z,1006.52
2019-01-22T10:45:14.918Z,1006.55
2019-01-22T10:46:14.880Z,1006.52
2019-01-22T10:47:14.898Z,1006.57
2019-01-22T10:48:14.870Z,1006.55
2019-01-22T10:49:14.864Z,1006.48
2019-01-22T10:50:14.827Z,1006.46
2019-01-22T10:51:14.814Z,1006.43
2019-01-22T10:52:14.819Z,1006.39
2019-01-22T10:53:14.832Z,1006.40
2019-01-22T10:54:14.802Z,1006.39
2019-01-22T10:55:14.801Z,1006.40
2019-01-22T10:56:14.778Z,1006.34
2019-01-22T10:57:14.788Z,1006.37
2019-01-22T10:58:14.748Z,1006.36
2019-01-22T10:59:14.760Z,1006.35
2019-01-22T11:00:14.727Z,1006.29
2019-01-22T11:01:14.755Z,1006.29
2019-01-22T11:02:14.718Z,1006.19
2019-01-22T11:03:14.703Z,1006.19
2019-01-22T11:04:14.680Z,1006.20
2019-01-22T11:05:14.690Z,1006.15
2019-01-22T11:06:14.664Z,1006.12
2019-01-22T11:07:14.646Z,1006.10
2019-01-22T11:08:14.660Z,1006.12
2019-01-22T11:09:14.634Z,1006.07
2019-01-22T11:10:14.630Z,1006.01
2019-01-22T11:11:14.600Z,1006.04
2019-01-22T11:12:14.585Z,1005.97
2019-01-22T11:13:14.580Z,1005.97
2019-01-22T11:14:14.579Z,1005.92
2019-01-22T11:15:14.570Z,1005.94
2019-01-22T11:16:15.143Z,1005.91
2019-01-22T11:17:14.553Z,1005.87
2019-01-22T11:18:14.521Z,1005.86
2019-01-22T11:19:14.528Z,1005.82
2019-01-22T11:20:14.513Z,1005.79
2019-01-22T11:21:14.533Z,1005.82
2019-01-22T11:22:14.481Z,1005.83
2019-01-22T11:23:14.475Z,1005.85
2019-01-22T11:24:14.458Z,1005.84
2019-01-22T11:25:14.455Z,1005.73
2019-01-22T11:26:14.438Z,1005.76
2019-01-22T11:27:14.447Z,1005.70
2019-01-22T11:28:14.423Z,1005.74
2019-01-22T11:29:14.424Z,1005.72
2019-01-22T11:30:14.392Z,1005.70
2019-01-22T11:31:14.411Z,1005.72
2019-01-22T11:32:14.367Z,1005.71
2019-01-22T11:33:14.377Z,1005.68
2019-01-22T11:34:14.360Z,1005.68
2019-01-22T11:35:14.342Z,1005.64
2019-01-22T11:36:14.324Z,1005.61
2019-01-22T11:37:14.336Z,1005.61
2019-01-22T11:38:14.318Z,1005.68
2019-01-22T11:39:14.301Z,1005.66
2019-01-22T11:40:14.298Z,1005.63
2019-01-22T11:41:14.272Z,1005.67
2019-01-22T11:42:14.274Z,1005.58
2019-01-22T11:43:14.243Z,1005.59
2019-01-22T11:44:14.246Z,1005.56
2019-01-22T11:45:14.263Z,1005.49
2019-01-22T11:46:14.225Z,1005.50
2019-01-22T11:47:14.445Z,1005.56
2019-01-22T11:48:14.243Z,1005.52
2019-01-22T11:49:14.190Z,1005.49
2019-01-22T11:50:14.173Z,1005.51
2019-01-22T11:51:14.165Z,1005.54
2019-01-22T11:52:14.168Z,1005.50
2019-01-22T11:53:14.145Z,1005.56
2019-01-22T11:54:14.151Z,1005.51
2019-01-22T11:55:14.120Z,1005.51
2019-01-22T11:56:14.130Z,1005.43
2019-01-22T11:57:14.103Z,1005.44
2019-01-22T11:58:14.103Z,1005.50
2019-01-22T11:59:14.118Z,1005.51
2019-01-22T12:00:14.068Z,1005.41
2019-01-22T12:01:14.061Z,1005.45
2019-01-22T12:02:14.047Z,1005.48
2019-01-22T12:03:14.039Z,1005.44
2019-01-22T12:04:14.046Z,1005.40
2019-01-22T12:05:14.009Z,1005.37